Time;durP1;ratioP1;P1;durP2;ratioP2;P2;SDS_P1;SDS_P2;PMS_P1;PMS_P2;Temp;Humidity;BMP_temperature;BMP_pressure;BME280_temperature;BME280_humidity;BME280_pressure;Samples;Min_cycle;Max_cycle;Signal;HPM_P1;HPM_P2
2022/10/18 00:01:03;;;;;;;3.43;3.23;;;24.30;67.80;;;;;;4896988;29;20467;-84
2022/10/18 00:03:32;;;;;;;3.10;2.90;;;24.30;67.70;;;;;;4900647;29;20438;-83
2022/10/18 00:06:01;;;;;;;3.40;3.10;;;24.30;67.70;;;;;;4898173;29;20501;-84
2022/10/18 00:08:30;;;;;;;3.10;2.90;;;24.30;67.70;;;;;;4901041;29;20439;-84
2022/10/18 00:10:59;;;;;;;3.40;3.10;;;24.30;67.60;;;;;;4895135;29;20498;-83
2022/10/18 00:13:27;;;;;;;3.07;2.57;;;24.30;67.60;;;;;;4899353;29;20478;-82
2022/10/18 00:15:59;;;;;;;3.70;3.17;;;24.30;67.50;;;;;;4892098;29;20469;-84
2022/10/18 00:18:27;;;;;;;3.67;3.20;;;24.30;67.60;;;;;;4900552;29;20450;-84
2022/10/18 00:21:00;;;;;;;3.80;3.33;;;24.30;67.50;;;;;;4900643;29;20444;-84
2022/10/18 00:23:32;;;;;;;3.50;3.20;;;24.20;67.60;;;;;;4895368;29;20798;-83
2022/10/18 00:26:02;;;;;;;3.13;2.83;;;24.20;67.50;;;;;;4894500;29;20861;-84
2022/10/18 00:28:31;;;;;;;3.40;3.10;;;24.20;67.50;;;;;;4900536;29;20799;-79
2022/10/18 00:31:10;;;;;;;3.27;3.00;;;24.20;67.40;;;;;;4898279;29;20459;-83
2022/10/18 00:33:38;;;;;;;3.10;2.90;;;24.20;67.40;;;;;;4900413;29;20568;-84
2022/10/18 00:36:07;;;;;;;3.20;2.90;;;24.20;67.40;;;;;;4895069;29;20465;-84
2022/10/18 00:38:37;;;;;;;3.00;2.80;;;24.20;67.40;;;;;;4881716;29;20439;-83
2022/10/18 00:41:07;;;;;;;3.03;2.83;;;24.20;67.40;;;;;;4893080;29;20465;-80
2022/10/18 00:43:54;;;;;;;3.20;3.00;;;24.20;67.30;;;;;;4898796;29;20473;-84
2022/10/18 00:46:22;;;;;;;3.00;2.80;;;24.20;67.30;;;;;;4895783;29;20461;-83
2022/10/18 00:48:51;;;;;;;3.20;2.93;;;24.20;67.30;;;;;;4899642;29;20773;-83
2022/10/18 00:51:28;;;;;;;3.10;2.90;;;24.20;67.30;;;;;;4895629;29;20472;-83
2022/10/18 00:53:58;;;;;;;5.90;3.23;;;24.20;67.30;;;;;;4880781;29;20511;-83
2022/10/18 00:56:26;;;;;;;4.70;3.17;;;24.20;67.30;;;;;;4889803;29;20464;-81
2022/10/18 00:58:59;;;;;;;3.20;2.47;;;24.20;67.20;;;;;;4898891;29;20962;-83
2022/10/18 01:01:30;;;;;;;2.80;2.60;;;24.20;67.20;;;;;;4897166;29;20467;-85
2022/10/18 01:03:58;;;;;;;3.00;2.80;;;24.20;67.20;;;;;;4896735;29;21010;-83
2022/10/18 01:06:28;;;;;;;3.00;2.80;;;24.20;67.10;;;;;;4896310;29;20461;-83
2022/10/18 01:09:09;;;;;;;3.10;2.80;;;24.20;67.10;;;;;;4895000;29;20987;-75
2022/10/18 01:11:54;;;;;;;3.50;3.20;;;24.20;67.10;;;;;;4885302;29;20465;-83
2022/10/18 01:14:34;;;;;;;2.87;2.67;;;24.20;67.10;;;;;;4901365;29;20888;-82
2022/10/18 01:17:12;;;;;;;4.63;2.77;;;24.20;67.10;;;;;;4882950;29;20469;-80
2022/10/18 01:20:18;;;;;;;2.83;2.63;;;24.20;67.00;;;;;;4896420;29;20472;-83
2022/10/18 01:22:53;;;;;;;3.13;2.93;;;24.20;67.00;;;;;;4875287;29;20842;-82
2022/10/18 01:25:36;;;;;;;2.90;2.70;;;24.20;67.00;;;;;;4895691;29;20472;-83
2022/10/18 01:28:16;;;;;;;3.13;2.93;;;24.20;67.00;;;;;;4896812;29;20469;-83
2022/10/18 01:30:58;;;;;;;2.83;2.63;;;24.10;67.00;;;;;;4894646;29;20453;-83
2022/10/18 01:33:32;;;;;;;3.20;2.90;;;24.20;66.90;;;;;;4897146;29;20439;-79
2022/10/18 01:36:06;;;;;;;2.70;2.50;;;24.10;66.90;;;;;;4896446;29;20490;-83
2022/10/18 01:38:36;;;;;;;3.20;3.00;;;24.10;66.90;;;;;;4894848;29;20474;-80
2022/10/18 01:41:07;;;;;;;2.60;2.40;;;24.10;66.90;;;;;;4900273;29;20452;-83
2022/10/18 01:43:43;;;;;;;2.90;2.57;;;24.10;67.00;;;;;;4895970;29;21531;-83
2022/10/18 01:46:18;;;;;;;3.30;2.60;;;24.10;66.90;;;;;;4897780;29;20963;-83
2022/10/18 01:48:47;;;;;;;2.50;2.30;;;24.10;66.90;;;;;;4897911;29;20442;-82
2022/10/18 01:51:18;;;;;;;5.73;3.23;;;24.10;66.90;;;;;;4896164;29;20542;-83
2022/10/18 01:53:46;;;;;;;3.43;3.20;;;24.10;66.90;;;;;;4897512;29;20541;-82
2022/10/18 01:56:30;;;;;;;2.50;2.40;;;24.10;66.80;;;;;;4899786;29;20465;-82
2022/10/18 01:59:24;;;;;;;2.60;2.50;;;24.10;66.80;;;;;;4894046;29;20466;-83
2022/10/18 02:02:02;;;;;;;3.10;2.90;;;24.10;66.80;;;;;;4894621;29;20806;-82
2022/10/18 02:04:40;;;;;;;3.03;2.73;;;24.10;66.80;;;;;;4899330;29;20443;-82
2022/10/18 02:07:20;;;;;;;2.90;2.70;;;24.10;66.80;;;;;;4894165;29;20458;-82
2022/10/18 02:09:54;;;;;;;2.97;2.77;;;24.10;66.80;;;;;;4897483;29;20467;-84
2022/10/18 02:12:23;;;;;;;3.20;3.00;;;24.10;66.80;;;;;;4891355;29;20485;-83
2022/10/18 02:14:53;;;;;;;2.93;2.73;;;24.10;66.80;;;;;;4897758;29;20823;-83
2022/10/18 02:17:28;;;;;;;2.40;2.20;;;24.10;66.70;;;;;;4892593;29;20468;-83
2022/10/18 02:19:57;;;;;;;3.30;3.10;;;24.10;66.70;;;;;;4898773;29;20481;-83
2022/10/18 02:22:29;;;;;;;2.87;2.67;;;24.10;66.70;;;;;;4896219;29;20487;-81
2022/10/18 02:25:02;;;;;;;3.20;2.70;;;24.10;66.70;;;;;;4898384;29;20448;-83
2022/10/18 02:27:30;;;;;;;3.00;2.80;;;24.10;66.70;;;;;;4897017;29;20573;-81
2022/10/18 02:29:59;;;;;;;3.00;2.70;;;24.10;66.70;;;;;;4897516;29;20469;-78
2022/10/18 02:32:34;;;;;;;2.73;2.60;;;24.10;66.60;;;;;;4896081;29;20468;-82
2022/10/18 02:35:07;;;;;;;2.70;2.50;;;24.10;66.70;;;;;;4891439;29;20989;-77
2022/10/18 02:37:38;;;;;;;3.27;2.97;;;24.10;66.60;;;;;;4893843;29;20465;-79
2022/10/18 02:40:09;;;;;;;2.87;2.67;;;24.10;66.60;;;;;;4896554;29;20463;-81
2022/10/18 02:42:40;;;;;;;2.80;2.60;;;24.10;66.60;;;;;;4895603;29;20461;-80
2022/10/18 02:45:08;;;;;;;3.93;3.63;;;24.10;66.60;;;;;;4890865;29;20466;-83
2022/10/18 02:47:38;;;;;;;3.53;3.20;;;24.10;66.60;;;;;;4879911;29;20458;-79
2022/10/18 02:50:06;;;;;;;4.43;2.87;;;24.10;66.60;;;;;;4891238;29;20469;-79
2022/10/18 02:52:34;;;;;;;3.67;3.37;;;24.10;66.60;;;;;;4897474;29;20781;-81
2022/10/18 02:55:03;;;;;;;3.37;3.17;;;24.10;66.60;;;;;;4897626;29;20494;-83
2022/10/18 02:57:31;;;;;;;2.83;2.63;;;24.10;66.60;;;;;;4894444;29;20502;-82
2022/10/18 03:00:00;;;;;;;3.50;3.20;;;24.10;66.50;;;;;;4897472;29;20455;-83
2022/10/18 03:02:28;;;;;;;3.43;3.13;;;24.10;66.50;;;;;;4896587;29;20547;-82
2022/10/18 03:04:58;;;;;;;3.60;3.30;;;24.10;66.50;;;;;;4892636;29;20899;-83
2022/10/18 03:07:26;;;;;;;3.30;3.10;;;24.10;66.50;;;;;;4890746;29;20451;-82
2022/10/18 03:09:54;;;;;;;3.40;3.10;;;24.10;66.50;;;;;;4890887;29;20464;-82
2022/10/18 03:12:22;;;;;;;3.50;3.20;;;24.10;66.50;;;;;;4878482;29;20461;-83
2022/10/18 03:14:50;;;;;;;4.47;3.63;;;24.10;66.50;;;;;;4893906;29;20992;-81
2022/10/18 03:17:18;;;;;;;4.33;3.53;;;24.10;66.50;;;;;;4897596;29;20895;-83
2022/10/18 03:19:46;;;;;;;4.60;3.60;;;24.10;66.50;;;;;;4894252;29;20483;-83
2022/10/18 03:22:16;;;;;;;5.90;3.00;;;24.10;66.50;;;;;;4888311;29;21287;-83
2022/10/18 03:24:44;;;;;;;3.13;2.93;;;24.10;66.50;;;;;;4893980;29;20460;-83
2022/10/18 03:27:12;;;;;;;4.20;3.80;;;24.10;66.50;;;;;;4895762;29;20436;-81
2022/10/18 03:29:40;;;;;;;4.00;3.70;;;24.10;66.50;;;;;;4894839;29;20479;-80
2022/10/18 03:32:08;;;;;;;3.63;3.23;;;24.10;66.50;;;;;;4897399;29;20442;-81
2022/10/18 03:34:36;;;;;;;4.27;3.70;;;24.10;66.40;;;;;;4895267;29;20478;-82
2022/10/18 03:37:04;;;;;;;3.70;3.40;;;24.10;66.40;;;;;;4896143;29;20468;-82
2022/10/18 03:39:34;;;;;;;3.40;3.10;;;24.00;66.50;;;;;;4894936;29;20467;-82
2022/10/18 03:42:02;;;;;;;3.90;3.43;;;24.00;66.40;;;;;;4895414;29;20469;-82
2022/10/18 03:44:30;;;;;;;3.20;2.90;;;24.10;66.40;;;;;;4907050;29;20469;-82
2022/10/18 03:46:58;;;;;;;3.07;2.77;;;24.10;66.40;;;;;;4894956;29;20466;-82
2022/10/18 03:49:26;;;;;;;4.07;3.20;;;24.00;66.40;;;;;;4897509;29;20437;-82
2022/10/18 03:51:54;;;;;;;3.23;3.03;;;24.00;66.40;;;;;;4894701;29;20536;-77
2022/10/18 03:54:22;;;;;;;3.60;3.30;;;24.00;66.40;;;;;;4908381;29;20493;-83
2022/10/18 03:56:52;;;;;;;4.93;3.67;;;24.10;66.40;;;;;;4886911;29;20493;-82
2022/10/18 03:59:21;;;;;;;3.70;2.80;;;24.00;66.40;;;;;;4896798;29;20462;-83
2022/10/18 04:01:49;;;;;;;2.83;2.67;;;24.00;66.40;;;;;;4892530;29;20465;-83
2022/10/18 04:04:17;;;;;;;3.70;3.40;;;24.00;66.40;;;;;;4895581;29;21213;-83
2022/10/18 04:06:46;;;;;;;3.17;2.93;;;24.00;66.30;;;;;;4886779;29;21026;-83
2022/10/18 04:09:14;;;;;;;3.10;2.90;;;24.00;66.40;;;;;;4893487;29;20459;-83
2022/10/18 04:11:42;;;;;;;3.47;2.70;;;24.00;66.40;;;;;;4895907;29;20815;-80
2022/10/18 04:14:12;;;;;;;3.33;3.03;;;24.00;66.40;;;;;;4905121;29;20466;-83
2022/10/18 04:16:40;;;;;;;3.27;3.03;;;24.00;66.40;;;;;;4895257;29;20478;-83
2022/10/18 04:19:08;;;;;;;3.60;3.30;;;24.00;66.40;;;;;;4885949;29;20992;-83
2022/10/18 04:21:36;;;;;;;3.77;3.47;;;24.00;66.40;;;;;;4893743;29;20455;-84
2022/10/18 04:24:05;;;;;;;3.83;3.13;;;24.00;66.40;;;;;;4894599;29;20469;-78
2022/10/18 04:26:33;;;;;;;3.30;3.07;;;24.00;66.30;;;;;;4894435;29;20930;-81
2022/10/18 04:29:01;;;;;;;3.23;3.00;;;24.00;66.40;;;;;;4891594;29;20468;-83
2022/10/18 04:31:31;;;;;;;3.63;2.93;;;24.00;66.40;;;;;;4888498;29;20452;-83
2022/10/18 04:33:59;;;;;;;4.87;3.10;;;24.00;66.30;;;;;;4893975;29;20467;-84
2022/10/18 04:36:27;;;;;;;3.73;3.43;;;24.00;66.30;;;;;;4890420;29;20473;-84
2022/10/18 04:38:55;;;;;;;3.30;3.00;;;24.00;66.20;;;;;;4891554;29;20473;-84
2022/10/18 04:41:23;;;;;;;3.00;2.80;;;24.00;66.30;;;;;;4885015;29;20469;-80
2022/10/18 04:43:51;;;;;;;3.67;3.37;;;24.00;66.40;;;;;;4896979;29;20475;-78
2022/10/18 04:46:19;;;;;;;3.23;2.97;;;24.00;66.60;;;;;;4896276;29;20450;-80
2022/10/18 04:48:49;;;;;;;3.43;2.90;;;24.00;66.90;;;;;;4893768;29;20455;-80
2022/10/18 04:51:17;;;;;;;4.67;3.27;;;24.00;67.00;;;;;;4900352;29;20461;-82
2022/10/18 04:53:45;;;;;;;7.30;3.00;;;24.00;68.20;;;;;;4897143;29;20992;-81
2022/10/18 04:56:13;;;;;;;3.67;2.90;;;24.00;67.40;;;;;;4898061;29;20490;-81
2022/10/18 04:58:41;;;;;;;3.90;3.10;;;24.00;67.30;;;;;;4893807;29;20462;-74
2022/10/18 05:01:09;;;;;;;4.03;3.17;;;24.00;67.30;;;;;;4889215;29;20464;-75
2022/10/18 05:03:37;;;;;;;6.63;3.53;;;24.00;69.10;;;;;;4895416;29;20489;-77
2022/10/18 05:06:07;;;;;;;5.50;3.80;;;24.00;69.70;;;;;;4889695;29;20445;-74
2022/10/18 05:08:37;;;;;;;6.07;3.27;;;24.00;69.00;;;;;;4890419;29;20457;-74
2022/10/18 05:11:05;;;;;;;3.70;3.27;;;24.00;68.60;;;;;;4911012;29;20463;-75
2022/10/18 05:13:33;;;;;;;4.63;3.40;;;24.00;69.30;;;;;;4890609;29;20910;-75
2022/10/18 05:16:01;;;;;;;5.43;3.23;;;24.00;69.70;;;;;;4898438;29;21074;-74
2022/10/18 05:18:29;;;;;;;4.13;3.83;;;24.00;69.70;;;;;;4891140;29;20457;-74
2022/10/18 05:20:58;;;;;;;2.87;2.67;;;24.00;69.40;;;;;;4899523;29;20460;-74
2022/10/18 05:23:27;;;;;;;3.63;3.30;;;24.00;69.30;;;;;;4889182;29;20463;-75
2022/10/18 05:26:00;;;;;;;3.63;2.33;;;24.00;69.30;;;;;;4887105;29;21407;-75
2022/10/18 05:28:28;;;;;;;3.97;2.70;;;24.00;69.20;;;;;;4887744;29;20919;-74
2022/10/18 05:31:12;;;;;;;3.27;2.97;;;24.00;69.30;;;;;;4897273;29;20958;-74
2022/10/18 05:33:40;;;;;;;5.20;4.70;;;24.00;69.30;;;;;;4894634;29;20495;-75
2022/10/18 05:36:10;;;;;;;3.33;3.03;;;24.00;69.10;;;;;;4894707;29;20474;-74
2022/10/18 05:38:41;;;;;;;5.83;3.20;;;24.00;69.00;;;;;;4894462;29;20471;-73
2022/10/18 05:41:11;;;;;;;4.53;3.47;;;24.00;68.80;;;;;;4888910;29;20502;-75
2022/10/18 05:43:40;;;;;;;5.87;3.63;;;23.90;68.80;;;;;;4888538;29;20467;-76
2022/10/18 05:46:08;;;;;;;3.57;3.13;;;24.00;68.70;;;;;;4898207;29;20456;-75
2022/10/18 05:48:43;;;;;;;3.47;3.17;;;24.00;68.90;;;;;;4896009;29;20481;-74
2022/10/18 05:51:11;;;;;;;4.10;3.07;;;24.00;69.00;;;;;;4898010;29;20859;-75
2022/10/18 05:53:41;;;;;;;6.17;3.30;;;24.00;68.70;;;;;;4895997;29;20556;-74
2022/10/18 05:56:11;;;;;;;5.50;2.60;;;23.90;68.70;;;;;;4896441;29;20475;-74
2022/10/18 05:58:40;;;;;;;5.23;3.10;;;24.00;68.80;;;;;;4897460;29;20445;-74
2022/10/18 06:01:10;;;;;;;3.50;3.20;;;24.00;68.60;;;;;;4895613;29;20467;-75
2022/10/18 06:03:38;;;;;;;5.30;4.10;;;23.90;68.60;;;;;;4898604;29;20910;-78
2022/10/18 06:06:08;;;;;;;17.97;7.40;;;24.00;69.10;;;;;;4895997;29;20908;-75
2022/10/18 06:08:37;;;;;;;9.87;5.90;;;24.00;73.80;;;;;;4896497;29;20490;-72
2022/10/18 06:11:11;;;;;;;11.77;5.23;;;24.00;73.30;;;;;;4895441;29;20456;-74
2022/10/18 06:13:42;;;;;;;10.60;4.63;;;24.00;75.00;;;;;;4892507;29;20482;-73
2022/10/18 06:16:12;;;;;;;8.33;5.20;;;24.00;76.10;;;;;;4894790;29;20770;-74
2022/10/18 06:18:41;;;;;;;10.40;6.00;;;24.00;76.50;;;;;;4890708;29;20495;-74
2022/10/18 06:21:09;;;;;;;10.50;5.20;;;24.10;76.60;;;;;;4896189;29;20499;-73
2022/10/18 06:23:37;;;;;;;6.80;5.23;;;24.10;76.50;;;;;;4892424;29;20471;-74
2022/10/18 06:26:11;;;;;;;11.53;5.23;;;24.10;76.30;;;;;;4895501;29;20461;-74
2022/10/18 06:28:39;;;;;;;12.00;4.50;;;24.10;76.10;;;;;;4893288;29;20465;-74
2022/10/18 06:31:07;;;;;;;7.87;4.73;;;24.10;75.80;;;;;;4895974;29;20483;-74
2022/10/18 06:33:36;;;;;;;6.83;3.97;;;24.10;75.60;;;;;;4891736;29;20472;-73
2022/10/18 06:36:07;;;;;;;9.40;4.13;;;24.10;75.40;;;;;;4888062;29;20485;-73
2022/10/18 06:38:35;;;;;;;7.10;4.67;;;24.10;75.00;;;;;;4893173;29;20477;-74
2022/10/18 06:41:04;;;;;;;5.37;4.00;;;24.10;74.90;;;;;;4893628;29;20795;-73
2022/10/18 06:43:34;;;;;;;5.73;3.97;;;24.10;74.70;;;;;;4887777;29;20464;-74
2022/10/18 06:46:03;;;;;;;4.27;3.90;;;24.10;74.80;;;;;;4897137;29;20469;-73
2022/10/18 06:48:32;;;;;;;13.47;4.27;;;24.10;74.80;;;;;;4889585;29;20445;-73
2022/10/18 06:51:02;;;;;;;8.30;4.17;;;24.10;74.60;;;;;;4890927;29;20566;-73
2022/10/18 06:53:32;;;;;;;7.63;4.60;;;24.10;74.40;;;;;;4896080;29;20453;-74
2022/10/18 06:56:01;;;;;;;4.80;4.20;;;24.10;74.20;;;;;;4893663;29;20502;-74
2022/10/18 06:58:30;;;;;;;7.27;4.00;;;24.10;74.20;;;;;;4891746;29;20477;-74
2022/10/18 07:01:04;;;;;;;9.20;4.07;;;24.10;74.10;;;;;;4892388;29;20480;-74
2022/10/18 07:03:34;;;;;;;4.63;3.50;;;24.10;74.00;;;;;;4895774;29;20454;-74
2022/10/18 07:06:02;;;;;;;4.20;3.47;;;24.10;73.90;;;;;;4893559;29;20469;-73
2022/10/18 07:08:31;;;;;;;4.23;3.83;;;24.10;73.90;;;;;;4885275;29;20480;-74
2022/10/18 07:11:00;;;;;;;5.20;3.33;;;24.10;73.70;;;;;;4885719;29;20458;-74
2022/10/18 07:13:30;;;;;;;8.53;4.03;;;24.10;73.60;;;;;;4886162;29;20450;-74
2022/10/18 07:16:04;;;;;;;5.20;3.70;;;24.10;73.50;;;;;;4894006;29;20820;-74
2022/10/18 07:18:34;;;;;;;3.73;3.27;;;24.10;73.50;;;;;;4896735;29;21373;-73
2022/10/18 07:21:03;;;;;;;10.43;4.47;;;24.10;73.60;;;;;;4892883;29;20454;-74
2022/10/18 07:23:33;;;;;;;8.37;4.50;;;24.10;73.50;;;;;;4895570;29;20477;-74
2022/10/18 07:26:01;;;;;;;9.30;3.40;;;24.10;73.40;;;;;;4892736;29;20464;-73
2022/10/18 07:28:30;;;;;;;5.67;3.80;;;24.20;73.30;;;;;;4893980;29;20466;-74
2022/10/18 07:31:03;;;;;;;3.57;3.00;;;24.20;73.10;;;;;;4895481;29;20454;-73
2022/10/18 07:33:36;;;;;;;4.10;3.33;;;24.20;73.10;;;;;;4895971;29;20462;-74
2022/10/18 07:36:06;;;;;;;5.23;3.30;;;24.20;72.90;;;;;;4892327;29;20461;-73
2022/10/18 07:38:35;;;;;;;5.30;3.20;;;24.20;72.80;;;;;;4896525;29;20474;-72
2022/10/18 07:41:05;;;;;;;3.60;3.13;;;24.30;72.50;;;;;;4896286;29;20461;-73
2022/10/18 07:43:34;;;;;;;3.40;3.03;;;24.30;72.50;;;;;;4894384;29;20989;-73
2022/10/18 07:46:04;;;;;;;3.50;3.20;;;24.30;72.30;;;;;;4895257;29;20452;-74
2022/10/18 07:48:34;;;;;;;5.97;3.43;;;24.30;72.20;;;;;;4894081;29;20458;-73
2022/10/18 07:51:03;;;;;;;3.03;2.67;;;24.30;72.10;;;;;;4894993;29;20450;-73
2022/10/18 07:53:33;;;;;;;4.50;3.97;;;24.30;72.00;;;;;;4892898;29;20466;-73
2022/10/18 07:56:02;;;;;;;5.53;3.93;;;24.40;71.90;;;;;;4885327;29;20472;-73
2022/10/18 07:58:36;;;;;;;4.80;3.60;;;24.40;71.90;;;;;;4894350;29;20484;-73
2022/10/18 08:01:06;;;;;;;3.50;3.20;;;24.40;71.70;;;;;;4893968;29;20559;-73
2022/10/18 08:03:36;;;;;;;5.10;4.03;;;24.40;71.70;;;;;;4895109;29;20827;-73
2022/10/18 08:06:07;;;;;;;3.77;3.07;;;24.40;71.70;;;;;;4893894;29;20463;-73
2022/10/18 08:08:37;;;;;;;3.77;3.47;;;24.40;71.70;;;;;;4892430;29;20468;-73
2022/10/18 08:11:06;;;;;;;3.77;3.40;;;24.40;71.60;;;;;;4894750;29;20486;-74
2022/10/18 08:13:35;;;;;;;3.90;3.47;;;24.40;71.40;;;;;;4894631;29;20541;-74
2022/10/18 08:16:05;;;;;;;3.27;2.90;;;24.40;71.40;;;;;;4895337;29;20947;-73
2022/10/18 08:18:35;;;;;;;7.60;3.40;;;24.50;71.30;;;;;;4898614;29;20501;-73
2022/10/18 08:21:05;;;;;;;3.50;2.60;;;24.50;71.00;;;;;;4896859;29;20478;-73
2022/10/18 08:23:34;;;;;;;4.60;3.10;;;24.50;70.90;;;;;;4893751;29;20494;-72
2022/10/18 08:26:02;;;;;;;4.00;3.60;;;24.50;70.90;;;;;;4897922;29;20467;-72
2022/10/18 08:28:30;;;;;;;3.03;2.73;;;24.50;71.00;;;;;;4896294;29;20460;-72
2022/10/18 08:31:03;;;;;;;2.80;2.60;;;24.50;71.10;;;;;;4898691;29;20451;-73
2022/10/18 08:33:31;;;;;;;3.53;3.23;;;24.50;71.10;;;;;;4897459;29;20470;-72
2022/10/18 08:36:04;;;;;;;3.33;3.13;;;24.50;71.10;;;;;;4896200;29;20934;-72
2022/10/18 08:38:34;;;;;;;3.43;2.93;;;24.60;71.00;;;;;;4895719;29;20539;-74
2022/10/18 08:41:16;;;;;;;9.83;3.60;;;24.50;71.00;;;;;;4894910;29;20495;-74
2022/10/18 08:43:50;;;;;;;3.93;3.23;;;24.60;71.00;;;;;;4897985;29;20468;-74
2022/10/18 08:46:19;;;;;;;3.20;3.00;;;24.60;71.00;;;;;;4897787;29;20806;-73
2022/10/18 08:48:50;;;;;;;3.30;3.07;;;24.60;71.00;;;;;;4898714;29;20987;-72
2022/10/18 08:51:29;;;;;;;3.87;3.57;;;24.60;71.00;;;;;;4895258;29;20477;-73
2022/10/18 08:54:04;;;;;;;4.23;3.23;;;24.60;71.00;;;;;;4897614;29;20533;-73
2022/10/18 08:56:34;;;;;;;3.77;3.47;;;24.60;71.00;;;;;;4898017;29;20454;-72
2022/10/18 08:59:03;;;;;;;3.60;3.10;;;24.60;71.00;;;;;;4898104;29;20473;-72
2022/10/18 09:01:48;;;;;;;5.63;2.90;;;24.70;71.00;;;;;;4898837;29;20456;-73
2022/10/18 09:04:28;;;;;;;3.23;2.93;;;24.70;70.90;;;;;;4896722;29;20558;-74
2022/10/18 09:07:17;;;;;;;3.53;3.27;;;24.70;70.90;;;;;;4892427;29;20463;-74
2022/10/18 09:09:54;;;;;;;5.67;3.60;;;24.70;70.80;;;;;;4893050;29;20456;-73
2022/10/18 09:12:38;;;;;;;3.03;2.80;;;24.70;70.80;;;;;;4893008;29;20466;-72
2022/10/18 09:15:14;;;;;;;3.83;3.40;;;24.70;70.70;;;;;;4898504;29;20464;-72
2022/10/18 09:17:56;;;;;;;3.73;3.10;;;24.70;70.60;;;;;;4896306;29;20845;-73
2022/10/18 09:20:27;;;;;;;5.00;3.40;;;24.70;70.60;;;;;;4894736;29;20583;-72
2022/10/18 09:23:02;;;;;;;3.50;3.23;;;24.80;70.60;;;;;;4896276;29;20460;-73
2022/10/18 09:25:35;;;;;;;3.70;3.23;;;24.80;70.70;;;;;;4890335;29;20488;-73
2022/10/18 09:28:15;;;;;;;3.37;3.17;;;24.80;70.60;;;;;;4890885;29;20467;-74
2022/10/18 09:30:54;;;;;;;3.40;3.10;;;24.80;70.60;;;;;;4897603;29;20990;-72
2022/10/18 09:33:39;;;;;;;5.57;3.17;;;24.80;70.50;;;;;;4895656;29;20466;-74
2022/10/18 09:36:10;;;;;;;3.47;3.23;;;24.80;70.50;;;;;;4897540;29;20945;-74
2022/10/18 09:38:44;;;;;;;4.13;3.20;;;24.90;70.50;;;;;;4893393;29;20485;-72
2022/10/18 09:41:18;;;;;;;3.43;3.20;;;24.90;70.30;;;;;;4895126;29;20542;-74
2022/10/18 09:43:58;;;;;;;4.77;3.67;;;24.90;70.30;;;;;;4894531;29;20463;-73
2022/10/18 09:46:31;;;;;;;3.77;3.47;;;24.90;70.20;;;;;;4893541;29;20490;-74
2022/10/18 09:49:04;;;;;;;3.53;3.23;;;24.90;70.20;;;;;;4893814;29;20476;-74
2022/10/18 09:51:36;;;;;;;5.33;4.20;;;25.00;70.10;;;;;;4896096;29;20462;-73
2022/10/18 09:54:20;;;;;;;3.87;3.47;;;25.00;70.10;;;;;;4890174;29;20485;-74
2022/10/18 09:56:51;;;;;;;3.80;3.50;;;25.00;70.10;;;;;;4895354;29;20852;-74
2022/10/18 09:59:32;;;;;;;6.40;3.93;;;25.00;70.10;;;;;;4894538;29;20481;-73
2022/10/18 10:02:00;;;;;;;3.50;3.20;;;25.00;70.30;;;;;;4895853;29;20479;-73
2022/10/18 10:04:29;;;;;;;3.57;2.83;;;25.00;70.30;;;;;;4895114;29;20578;-74
2022/10/18 10:07:00;;;;;;;3.23;2.90;;;25.10;70.20;;;;;;4888729;29;20654;-74
2022/10/18 10:09:31;;;;;;;3.80;3.27;;;25.10;70.00;;;;;;4893024;29;20982;-74
2022/10/18 10:11:59;;;;;;;3.63;3.33;;;25.10;69.70;;;;;;4892380;29;20460;-76
2022/10/18 10:14:29;;;;;;;4.43;3.07;;;25.10;69.50;;;;;;4892846;29;20485;-73
2022/10/18 10:17:01;;;;;;;3.53;3.30;;;25.10;69.50;;;;;;4891511;29;20552;-73
2022/10/18 10:19:32;;;;;;;3.30;3.00;;;25.20;69.60;;;;;;4895721;29;20963;-73
2022/10/18 10:22:05;;;;;;;5.37;3.57;;;25.20;69.40;;;;;;4892940;29;21108;-74
2022/10/18 10:24:43;;;;;;;2.80;2.60;;;25.20;69.00;;;;;;4897173;29;20789;-73
2022/10/18 10:27:21;;;;;;;3.20;2.90;;;25.30;69.00;;;;;;4894724;29;20461;-74
2022/10/18 10:29:55;;;;;;;3.10;2.90;;;25.40;68.70;;;;;;4898099;29;20539;-74
2022/10/18 10:32:26;;;;;;;3.90;3.60;;;25.40;68.60;;;;;;4896004;29;20477;-74
2022/10/18 10:34:59;;;;;;;3.33;3.03;;;25.50;68.20;;;;;;4892132;29;20463;-74
2022/10/18 10:37:34;;;;;;;3.07;2.60;;;25.60;68.20;;;;;;4897613;29;20495;-74
2022/10/18 10:40:22;;;;;;;3.17;2.97;;;25.70;68.10;;;;;;4891236;29;21023;-74
2022/10/18 10:43:00;;;;;;;2.50;2.40;;;25.90;67.40;;;;;;4897405;29;20843;-73
2022/10/18 10:45:59;;;;;;;3.40;3.10;;;26.00;67.00;;;;;;4894034;29;20459;-74
2022/10/18 10:48:30;;;;;;;3.90;3.60;;;26.20;66.70;;;;;;4893286;29;20999;-73
2022/10/18 10:51:07;;;;;;;3.03;2.83;;;26.20;66.60;;;;;;4890785;29;20468;-74
2022/10/18 10:53:49;;;;;;;3.60;3.00;;;26.20;67.00;;;;;;4896401;29;20915;-73
2022/10/18 10:56:23;;;;;;;3.07;2.87;;;26.10;66.90;;;;;;4896079;29;20458;-74
2022/10/18 10:58:53;;;;;;;3.83;2.97;;;26.00;67.20;;;;;;4895902;29;20469;-74
2022/10/18 11:01:25;;;;;;;5.53;2.67;;;26.00;67.20;;;;;;4892559;29;20455;-75
2022/10/18 11:03:56;;;;;;;2.93;2.73;;;25.90;67.40;;;;;;4890609;29;20466;-75
2022/10/18 11:06:53;;;;;;;2.87;2.57;;;25.90;67.20;;;;;;4893142;29;20454;-75
2022/10/18 11:09:41;;;;;;;3.07;2.83;;;25.90;67.20;;;;;;4892018;29;20465;-75
2022/10/18 11:12:28;;;;;;;2.90;2.70;;;25.90;67.10;;;;;;4889980;29;20471;-76
2022/10/18 11:15:08;;;;;;;3.50;3.20;;;26.00;67.00;;;;;;4892237;29;20469;-76
2022/10/18 11:17:42;;;;;;;3.20;3.00;;;26.00;66.80;;;;;;4888895;29;21018;-76
2022/10/18 11:20:21;;;;;;;3.00;2.83;;;26.10;66.80;;;;;;4893449;29;20493;-76
2022/10/18 11:22:59;;;;;;;2.97;2.77;;;26.00;66.90;;;;;;4894203;29;20570;-76
2022/10/18 11:25:43;;;;;;;2.90;2.70;;;26.00;66.90;;;;;;4889534;29;20569;-76
2022/10/18 11:28:23;;;;;;;3.10;2.80;;;26.10;67.00;;;;;;4893108;29;20471;-75
2022/10/18 11:31:05;;;;;;;3.33;3.03;;;26.20;66.90;;;;;;4893253;29;20467;-72
2022/10/18 11:33:44;;;;;;;3.27;2.97;;;26.40;66.50;;;;;;4887651;29;20493;-81
2022/10/18 11:36:38;;;;;;;2.73;2.53;;;26.40;66.20;;;;;;4886957;29;20478;-81
2022/10/18 11:39:30;;;;;;;3.27;3.03;;;26.40;66.20;;;;;;4896030;29;20491;-83
2022/10/18 11:42:07;;;;;;;3.37;3.07;;;26.30;66.40;;;;;;4895547;29;20889;-81
2022/10/18 11:44:46;;;;;;;3.77;3.50;;;26.20;66.70;;;;;;4888642;29;21417;-78
2022/10/18 11:47:21;;;;;;;3.20;3.00;;;26.10;66.90;;;;;;4890808;29;20471;-77
2022/10/18 11:50:03;;;;;;;3.30;3.10;;;26.10;67.00;;;;;;4895694;29;20465;-76
2022/10/18 11:52:37;;;;;;;2.80;2.60;;;26.00;67.00;;;;;;4894526;29;20491;-77
2022/10/18 11:55:18;;;;;;;3.63;3.00;;;26.00;67.10;;;;;;4892400;29;20501;-75
2022/10/18 11:57:54;;;;;;;4.23;2.83;;;26.00;67.20;;;;;;4891903;29;20467;-75
2022/10/18 12:00:45;;;;;;;2.90;2.70;;;26.00;67.20;;;;;;4898365;29;20489;-76
2022/10/18 12:03:34;;;;;;;3.73;2.87;;;26.00;67.30;;;;;;4890584;29;21041;-77
2022/10/18 12:06:05;;;;;;;3.93;3.53;;;26.20;67.00;;;;;;4897178;29;20470;-74
2022/10/18 12:08:38;;;;;;;2.90;2.70;;;26.30;66.50;;;;;;4894663;29;20806;-75
2022/10/18 12:11:14;;;;;;;3.00;2.80;;;26.30;66.30;;;;;;4897315;29;20535;-76
2022/10/18 12:13:47;;;;;;;3.50;3.20;;;26.30;66.40;;;;;;4892379;29;20459;-78
2022/10/18 12:16:20;;;;;;;3.20;3.00;;;26.30;66.60;;;;;;4891774;29;20481;-78
2022/10/18 12:19:17;;;;;;;4.20;3.10;;;26.40;66.40;;;;;;4893915;29;20879;-79
2022/10/18 12:21:53;;;;;;;3.70;3.40;;;26.60;65.90;;;;;;4892590;29;20548;-76
2022/10/18 12:24:25;;;;;;;3.13;2.93;;;26.70;65.70;;;;;;4887864;29;20464;-76
2022/10/18 12:26:59;;;;;;;3.07;2.87;;;26.80;65.50;;;;;;4892829;29;20467;-80
2022/10/18 12:29:34;;;;;;;4.37;3.30;;;26.80;65.30;;;;;;4895328;29;20551;-81
2022/10/18 12:32:09;;;;;;;2.80;2.60;;;26.80;65.30;;;;;;4891720;29;21023;-79
2022/10/18 12:34:43;;;;;;;3.10;2.83;;;26.60;65.50;;;;;;4893244;29;20541;-81
2022/10/18 12:37:40;;;;;;;3.00;2.80;;;26.60;65.70;;;;;;4894885;29;20462;-82
2022/10/18 12:40:13;;;;;;;3.40;3.10;;;26.60;65.70;;;;;;4898508;29;20477;-81
2022/10/18 12:42:50;;;;;;;3.67;3.47;;;26.50;66.00;;;;;;4893387;29;20844;-78
2022/10/18 12:45:27;;;;;;;3.23;3.03;;;26.50;65.90;;;;;;4890663;29;20809;-69
2022/10/18 12:48:00;;;;;;;3.87;3.40;;;26.40;66.00;;;;;;4893625;29;21018;-74
2022/10/18 12:50:34;;;;;;;3.47;3.27;;;26.40;66.20;;;;;;4888507;29;20892;-69
2022/10/18 12:53:18;;;;;;;7.47;3.50;;;26.30;66.60;;;;;;4887004;29;20467;-69
2022/10/18 12:55:48;;;;;;;3.13;2.80;;;26.20;66.90;;;;;;4887638;29;20500;-71
2022/10/18 12:58:28;;;;;;;3.70;3.40;;;26.10;67.10;;;;;;4890908;29;20468;-74
2022/10/18 13:01:01;;;;;;;3.17;2.87;;;26.10;67.30;;;;;;4883852;29;20827;-69
2022/10/18 13:04:00;;;;;;;2.93;2.67;;;26.10;67.60;;;;;;4888499;29;20471;-71
2022/10/18 13:07:19;;;;;;;2.67;2.57;;;26.00;67.70;;;;;;4891927;29;20486;-72
2022/10/18 13:10:39;;;;;;;4.20;3.23;;;26.00;67.80;;;;;;4879627;29;20482;-70
2022/10/18 13:13:40;;;;;;;4.57;3.83;;;25.90;68.00;;;;;;4892438;29;20464;-69
2022/10/18 13:16:25;;;;;;;3.80;3.50;;;25.90;68.10;;;;;;4884589;29;20498;-71